Time;durP1;ratioP1;P1;durP2;ratioP2;P2;SDS_P1;SDS_P2;PMS_P1;PMS_P2;Temp;Humidity;BMP_temperature;BMP_pressure;BME280_temperature;BME280_humidity;BME280_pressure;Samples;Min_cycle;Max_cycle;Signal;HPM_P1;HPM_P2
2023/07/18 00:04:34;;;;;;;11.73;5.03;;;14.00;99.90;;;;;;12527431;28;20056;-34
2023/07/18 00:10:36;;;;;;;10.35;5.03;;;13.80;99.90;;;;;;12500962;28;20125;-35
2023/07/18 00:16:39;;;;;;;10.55;5.18;;;13.90;99.90;;;;;;12529896;28;20049;-34
2023/07/18 00:22:41;;;;;;;10.30;5.40;;;14.00;99.90;;;;;;12529439;28;20045;-34
2023/07/18 00:28:43;;;;;;;12.43;5.20;;;13.90;99.90;;;;;;12527041;28;20037;-34
2023/07/18 00:34:46;;;;;;;11.10;5.10;;;14.00;99.90;;;;;;12520291;28;20049;-33
2023/07/18 00:40:48;;;;;;;10.65;5.32;;;14.10;99.90;;;;;;12518085;28;20045;-34
2023/07/18 00:46:50;;;;;;;8.57;4.72;;;14.10;99.90;;;;;;12527289;28;20044;-34
2023/07/18 00:52:53;;;;;;;12.13;5.35;;;14.00;99.90;;;;;;12522428;28;20045;-34
2023/07/18 00:58:56;;;;;;;7.90;5.20;;;13.90;99.90;;;;;;12515128;28;20072;-34
2023/07/18 01:04:58;;;;;;;10.93;5.05;;;13.90;99.90;;;;;;12510044;28;20082;-34
2023/07/18 01:11:00;;;;;;;13.25;5.53;;;13.80;99.90;;;;;;12502039;28;20494;-33
2023/07/18 01:17:05;;;;;;;14.38;5.40;;;13.80;99.90;;;;;;12521436;28;20059;-34
2023/07/18 01:23:07;;;;;;;10.88;6.00;;;13.70;99.90;;;;;;12514038;28;20084;-34
2023/07/18 01:29:10;;;;;;;14.85;6.10;;;13.80;99.90;;;;;;12517363;28;20095;-34
2023/07/18 01:35:12;;;;;;;12.83;6.03;;;13.80;99.90;;;;;;12483157;28;1230596;-34
2023/07/18 01:41:14;;;;;;;11.20;5.22;;;13.80;99.90;;;;;;12534331;28;20530;-33
2023/07/18 01:47:16;;;;;;;12.63;5.32;;;13.80;99.90;;;;;;12527619;28;20482;-34
2023/07/18 01:53:18;;;;;;;13.80;5.78;;;13.70;99.90;;;;;;12521462;28;20045;-33
2023/07/18 01:59:20;;;;;;;9.27;5.72;;;13.70;99.90;;;;;;12521453;28;20462;-33
2023/07/18 02:05:25;;;;;;;13.65;6.53;;;13.60;99.90;;;;;;12513555;28;20096;-34
2023/07/18 02:11:28;;;;;;;14.77;6.10;;;13.50;99.90;;;;;;12530490;28;20300;-34
2023/07/18 02:17:30;;;;;;;12.98;5.90;;;13.60;99.90;;;;;;12520429;28;20095;-35
2023/07/18 02:23:32;;;;;;;14.13;5.88;;;13.60;99.90;;;;;;12515215;28;20068;-34
2023/07/18 02:29:34;;;;;;;11.40;5.57;;;13.50;99.90;;;;;;12520966;28;20469;-34
2023/07/18 02:35:36;;;;;;;17.83;6.45;;;13.40;99.90;;;;;;12526317;28;20106;-34
2023/07/18 02:41:39;;;;;;;13.77;6.18;;;13.40;99.90;;;;;;12526919;28;20048;-34
2023/07/18 02:47:41;;;;;;;14.60;5.65;;;13.30;99.90;;;;;;12520714;28;20069;-33
2023/07/18 02:53:43;;;;;;;11.48;5.85;;;13.30;99.90;;;;;;12502598;28;20428;-34
2023/07/18 02:59:45;;;;;;;11.73;5.35;;;13.20;99.90;;;;;;12511130;28;20041;-33
2023/07/18 03:05:47;;;;;;;11.25;5.50;;;13.20;99.90;;;;;;12493052;28;20503;-34
2023/07/18 03:11:51;;;;;;;11.32;5.45;;;13.40;99.90;;;;;;12505613;28;20052;-34
2023/07/18 03:17:54;;;;;;;14.60;5.63;;;13.30;99.90;;;;;;12505889;28;20045;-34
2023/07/18 03:23:56;;;;;;;11.52;5.18;;;13.40;99.90;;;;;;12505495;28;20191;-34
2023/07/18 03:29:58;;;;;;;9.27;4.65;;;13.40;99.90;;;;;;12507103;28;20081;-34
2023/07/18 03:36:00;;;;;;;10.85;4.90;;;13.60;99.90;;;;;;12491253;28;20168;-34
2023/07/18 03:42:03;;;;;;;15.70;5.07;;;13.60;99.90;;;;;;12502755;28;20068;-34
2023/07/18 03:48:05;;;;;;;12.80;5.55;;;13.50;99.90;;;;;;12498566;28;20045;-34
2023/07/18 03:54:07;;;;;;;13.20;5.07;;;13.40;99.90;;;;;;12510332;28;20073;-34
2023/07/18 04:00:13;;;;;;;10.02;5.03;;;13.60;99.90;;;;;;12501459;28;20469;-34
2023/07/18 04:06:16;;;;;;;11.63;4.93;;;13.80;99.90;;;;;;12493469;28;20045;-34
2023/07/18 04:12:18;;;;;;;9.63;5.20;;;13.80;99.90;;;;;;12505228;28;20056;-34
2023/07/18 04:18:20;;;;;;;12.30;4.70;;;13.90;99.90;;;;;;12513646;28;20415;-34
2023/07/18 04:24:21;;;;;;;10.25;4.40;;;13.90;99.90;;;;;;12521526;28;20083;-34
2023/07/18 04:30:23;;;;;;;12.48;4.93;;;14.60;99.90;;;;;;12509156;28;20041;-35
2023/07/18 04:36:25;;;;;;;11.32;4.70;;;15.10;99.90;;;;;;12518367;28;20183;-34
2023/07/18 04:42:27;;;;;;;10.98;4.75;;;16.10;99.90;;;;;;12517460;28;20060;-34
2023/07/18 04:48:29;;;;;;;7.47;4.60;;;16.10;99.90;;;;;;12527636;28;20045;-35
2023/07/18 04:54:31;;;;;;;11.10;4.35;;;15.90;99.90;;;;;;12522187;28;20044;-34
2023/07/18 05:00:35;;;;;;;9.43;4.38;;;15.50;99.90;;;;;;12521897;28;20053;-35
2023/07/18 05:06:37;;;;;;;13.00;4.55;;;15.20;99.90;;;;;;12505284;28;20064;-34
2023/07/18 05:12:39;;;;;;;9.73;4.53;;;14.80;99.90;;;;;;12524627;28;20049;-34
2023/07/18 05:18:41;;;;;;;12.23;4.13;;;14.70;99.90;;;;;;12522274;28;20077;-34
2023/07/18 05:24:43;;;;;;;10.02;5.10;;;14.70;99.90;;;;;;12523165;28;20049;-34
2023/07/18 05:30:45;;;;;;;12.57;4.35;;;14.60;99.90;;;;;;12517687;28;20050;-35
2023/07/18 05:36:47;;;;;;;11.75;4.80;;;14.60;99.90;;;;;;12511492;28;20057;-35
2023/07/18 05:42:49;;;;;;;12.02;5.10;;;14.70;99.90;;;;;;12525938;28;20584;-34
2023/07/18 05:48:51;;;;;;;13.32;4.60;;;14.80;99.90;;;;;;12519683;28;20041;-34
2023/07/18 05:54:53;;;;;;;12.80;4.55;;;15.10;99.90;;;;;;12504781;28;20052;-34
2023/07/18 06:00:55;;;;;;;10.68;4.05;;;15.10;99.90;;;;;;12508890;28;20167;-34
2023/07/18 06:06:57;;;;;;;11.20;4.07;;;15.10;99.90;;;;;;12516459;28;20069;-34
2023/07/18 06:12:58;;;;;;;7.68;3.50;;;15.40;99.90;;;;;;12505671;28;20045;-34
2023/07/18 06:19:00;;;;;;;7.88;3.67;;;15.50;99.90;;;;;;12527505;28;20108;-34
2023/07/18 06:25:02;;;;;;;7.65;3.47;;;15.50;99.90;;;;;;12525377;28;20041;-34
2023/07/18 06:31:04;;;;;;;9.43;3.30;;;15.70;99.90;;;;;;12519117;28;20053;-35
2023/07/18 06:37:08;;;;;;;8.02;3.70;;;16.00;99.90;;;;;;12529325;28;20045;-34
2023/07/18 06:43:13;;;;;;;8.48;3.35;;;16.20;99.90;;;;;;12520829;28;20401;-34
2023/07/18 06:49:15;;;;;;;6.60;2.70;;;16.50;99.90;;;;;;12506904;28;20048;-34
2023/07/18 06:55:17;;;;;;;8.02;2.65;;;17.00;99.90;;;;;;12504714;28;20509;-34
2023/07/18 07:01:19;;;;;;;8.02;3.08;;;17.10;99.90;;;;;;12513753;28;20049;-34
2023/07/18 07:07:21;;;;;;;7.82;3.15;;;17.30;99.90;;;;;;12519736;28;20367;-34
2023/07/18 07:13:24;;;;;;;11.60;3.75;;;17.30;99.90;;;;;;12509380;28;20047;-35
2023/07/18 07:19:25;;;;;;;8.85;3.60;;;17.30;99.90;;;;;;12523528;28;20063;-35
2023/07/18 07:25:29;;;;;;;11.73;3.63;;;17.30;99.90;;;;;;12506697;28;20136;-35
2023/07/18 07:31:31;;;;;;;8.90;3.10;;;17.30;99.90;;;;;;12507293;28;20131;-34
2023/07/18 07:37:33;;;;;;;9.77;3.85;;;17.40;99.90;;;;;;12524167;28;20045;-35
2023/07/18 07:43:35;;;;;;;8.52;3.13;;;17.50;99.90;;;;;;12523661;28;20049;-35
2023/07/18 07:49:37;;;;;;;8.40;3.35;;;17.60;99.90;;;;;;12498774;28;20042;-35
2023/07/18 07:55:39;;;;;;;12.98;3.60;;;17.80;99.90;;;;;;12499316;28;20413;-35
2023/07/18 08:01:42;;;;;;;10.70;3.97;;;18.00;99.90;;;;;;12498743;28;20053;-35
2023/07/18 08:07:44;;;;;;;11.80;3.60;;;18.10;99.90;;;;;;12529863;28;20053;-35
2023/07/18 08:13:46;;;;;;;10.38;4.07;;;18.20;99.90;;;;;;12513109;28;20043;-35
2023/07/18 08:19:48;;;;;;;10.18;3.90;;;18.30;99.90;;;;;;12516179;28;20053;-35
2023/07/18 08:25:49;;;;;;;9.27;3.15;;;18.50;99.90;;;;;;12511092;28;20512;-35
2023/07/18 08:31:54;;;;;;;10.80;3.75;;;18.60;99.90;;;;;;12516833;28;20469;-35
2023/07/18 08:37:56;;;;;;;9.23;3.67;;;18.90;99.90;;;;;;12515936;28;20057;-35
2023/07/18 08:43:59;;;;;;;10.20;3.90;;;18.90;99.90;;;;;;12515811;28;20072;-35
2023/07/18 08:50:06;;;;;;;12.95;3.47;;;18.80;99.90;;;;;;12516534;28;20485;-35
2023/07/18 08:56:08;;;;;;;9.82;3.83;;;18.90;99.90;;;;;;12497232;28;20068;-35
2023/07/18 09:02:10;;;;;;;7.18;3.05;;;19.10;99.90;;;;;;12518905;28;20131;-35
2023/07/18 09:08:13;;;;;;;6.18;2.42;;;19.50;99.90;;;;;;12506953;28;20049;-35
2023/07/18 09:14:34;;;;;;;9.40;2.50;;;19.80;99.90;;;;;;12507456;28;20401;-35
2023/07/18 09:20:36;;;;;;;8.65;2.55;;;19.60;99.90;;;;;;12516586;28;20616;-36
2023/07/18 09:26:39;;;;;;;6.22;2.20;;;19.90;99.90;;;;;;12525299;28;20072;-36
2023/07/18 09:32:43;;;;;;;5.68;2.00;;;20.50;99.90;;;;;;12509364;28;20084;-35
2023/07/18 09:38:47;;;;;;;6.47;2.47;;;20.40;99.90;;;;;;12511600;28;20501;-35
2023/07/18 09:44:50;;;;;;;7.63;1.90;;;20.00;99.90;;;;;;12498846;28;20053;-35
2023/07/18 09:50:56;;;;;;;6.88;2.45;;;20.40;99.90;;;;;;12509616;28;20045;-35
2023/07/18 09:57:05;;;;;;;;;;;20.90;99.90;;;;;;12504324;28;20045;-35
2023/07/18 10:03:08;;;;;;;7.45;1.85;;;20.60;99.90;;;;;;12494972;28;19953;-36
2023/07/18 10:09:10;;;;;;;6.97;1.58;;;21.10;99.90;;;;;;12502268;28;20417;-35
2023/07/18 10:15:12;;;;;;;8.35;2.50;;;21.70;99.90;;;;;;12515281;28;20135;-35
2023/07/18 10:21:31;;;;;;;4.35;1.63;;;22.20;99.90;;;;;;12514329;28;20057;-35
2023/07/18 10:27:42;;;;;;;3.67;1.70;;;22.40;99.90;;;;;;12516117;28;20230;-34
2023/07/18 10:34:09;;;;;;;7.80;2.60;;;22.00;99.90;;;;;;12523483;28;20418;-35
2023/07/18 10:40:39;;;;;;;4.40;1.35;;;22.30;99.90;;;;;;12487740;28;20060;-35
2023/07/18 10:46:42;;;;;;;4.25;2.05;;;22.30;99.90;;;;;;12491246;28;20046;-35
2023/07/18 10:52:44;;;;;;;6.00;1.75;;;21.30;99.90;;;;;;12498575;28;20060;-35
2023/07/18 10:58:46;;;;;;;7.18;2.15;;;22.20;99.90;;;;;;12501173;28;20053;-35
2023/07/18 11:04:53;;;;;;;2.70;0.95;;;22.90;99.90;;;;;;12516222;28;20074;-35
2023/07/18 11:11:04;;;;;;;5.55;1.50;;;23.40;99.90;;;;;;12491479;28;20072;-35
2023/07/18 11:17:13;;;;;;;3.53;1.20;;;23.40;99.90;;;;;;12508968;28;20037;-35
2023/07/18 11:23:15;;;;;;;2.80;1.48;;;23.10;99.90;;;;;;12528718;28;20037;-35
2023/07/18 11:29:25;;;;;;;4.45;1.50;;;23.00;99.90;;;;;;12500826;28;20041;-35
2023/07/18 11:35:28;;;;;;;8.20;1.80;;;23.50;99.90;;;;;;12514252;28;20410;-35
2023/07/18 11:41:32;;;;;;;4.30;1.30;;;22.30;99.90;;;;;;12535222;28;20079;-35
2023/07/18 11:47:37;;;;;;;4.07;1.40;;;22.30;99.90;;;;;;12488767;28;20347;-35
2023/07/18 11:53:39;;;;;;;7.82;1.90;;;22.50;99.90;;;;;;12503540;28;20041;-35
2023/07/18 11:59:41;;;;;;;4.40;1.80;;;22.00;99.90;;;;;;12513087;28;20045;-35
2023/07/18 12:05:43;;;;;;;5.70;1.70;;;21.90;99.90;;;;;;12493147;28;20041;-35
2023/07/18 12:11:45;;;;;;;4.63;1.40;;;22.40;99.90;;;;;;12514038;28;20048;-35
2023/07/18 12:17:47;;;;;;;3.70;1.42;;;22.40;99.90;;;;;;12521721;28;20465;-36
2023/07/18 12:23:49;;;;;;;5.00;1.40;;;22.00;99.90;;;;;;12510764;28;20913;-35
2023/07/18 12:29:51;;;;;;;2.65;1.33;;;22.60;99.90;;;;;;12523140;28;20045;-35
2023/07/18 12:35:53;;;;;;;4.43;1.10;;;23.00;99.90;;;;;;12530761;28;20418;-36
2023/07/18 12:41:55;;;;;;;2.97;1.10;;;23.60;99.90;;;;;;12507882;28;20038;-35
2023/07/18 12:47:57;;;;;;;3.03;1.00;;;23.90;99.90;;;;;;12512199;28;20584;-35
2023/07/18 12:53:59;;;;;;;4.22;1.13;;;23.60;99.90;;;;;;12514977;28;20153;-35
2023/07/18 13:00:01;;;;;;;2.70;1.05;;;23.10;99.90;;;;;;12519706;28;20595;-35
2023/07/18 13:06:06;;;;;;;3.67;1.17;;;23.20;99.90;;;;;;12442082;28;20073;-35
2023/07/18 13:12:09;;;;;;;4.15;1.10;;;23.60;99.90;;;;;;12462885;28;20048;-35
2023/07/18 13:18:10;;;;;;;2.83;1.00;;;23.90;99.90;;;;;;12481753;28;20072;-35
2023/07/18 13:24:12;;;;;;;3.58;1.23;;;24.10;99.90;;;;;;12455405;28;20057;-35
2023/07/18 13:30:15;;;;;;;2.92;1.00;;;24.10;99.90;;;;;;12433018;28;20044;-35
2023/07/18 13:36:18;;;;;;;2.30;0.95;;;24.00;99.90;;;;;;12473018;28;20088;-35
2023/07/18 13:42:20;;;;;;;3.25;0.80;;;24.20;99.90;;;;;;12470421;28;20565;-35
2023/07/18 13:48:22;;;;;;;1.40;0.50;;;23.90;99.90;;;;;;12463444;28;20123;-35
2023/07/18 13:54:25;;;;;;;2.17;0.90;;;23.60;99.90;;;;;;12451221;28;20060;-35
2023/07/18 14:00:27;;;;;;;1.73;0.87;;;23.50;99.90;;;;;;12473346;28;20057;-35
2023/07/18 14:06:29;;;;;;;2.47;1.00;;;23.70;99.90;;;;;;12463858;28;20045;-35
2023/07/18 14:12:31;;;;;;;3.17;1.00;;;23.20;99.90;;;;;;12456518;28;20804;-35
2023/07/18 14:18:33;;;;;;;3.00;0.93;;;22.80;99.90;;;;;;12471404;28;20061;-35
2023/07/18 14:24:35;;;;;;;6.53;1.00;;;23.10;99.90;;;;;;12442766;28;20038;-35
2023/07/18 14:30:37;;;;;;;1.83;0.82;;;23.60;99.90;;;;;;12455740;28;20458;-37
2023/07/18 14:36:39;;;;;;;6.25;1.52;;;23.60;99.90;;;;;;12475719;28;20054;-35
2023/07/18 14:42:42;;;;;;;3.15;1.08;;;23.80;99.90;;;;;;12472352;28;20057;-35
2023/07/18 14:48:44;;;;;;;4.55;0.95;;;23.90;99.90;;;;;;12468494;28;20038;-35
2023/07/18 14:54:46;;;;;;;2.38;0.95;;;24.20;99.90;;;;;;12457621;28;20079;-35
2023/07/18 15:00:48;;;;;;;2.85;1.00;;;23.70;99.90;;;;;;12480421;28;20041;-37
2023/07/18 15:06:52;;;;;;;3.35;0.90;;;24.00;99.90;;;;;;12454408;28;20041;-35
2023/07/18 15:12:54;;;;;;;2.25;0.90;;;24.30;99.90;;;;;;12449447;28;20041;-35
2023/07/18 15:18:56;;;;;;;3.13;1.00;;;24.10;99.90;;;;;;12462500;28;20501;-36
2023/07/18 15:24:58;;;;;;;2.78;1.00;;;24.40;99.90;;;;;;12471509;28;20095;-35
2023/07/18 15:31:00;;;;;;;3.40;1.00;;;24.00;99.90;;;;;;12442540;28;20042;-35
2023/07/18 15:37:01;;;;;;;3.70;1.10;;;24.20;99.90;;;;;;12457645;28;20533;-35
2023/07/18 15:43:03;;;;;;;2.70;0.98;;;24.30;99.90;;;;;;12449995;28;20419;-36
2023/07/18 15:49:06;;;;;;;1.55;0.88;;;24.50;99.90;;;;;;12448272;28;20053;-35
2023/07/18 15:55:08;;;;;;;5.00;1.10;;;24.30;99.90;;;;;;12453084;28;20366;-35
2023/07/18 16:01:10;;;;;;;2.67;1.20;;;24.30;99.90;;;;;;12463520;28;20041;-35
2023/07/18 16:07:14;;;;;;;2.40;1.20;;;24.00;99.90;;;;;;12451765;28;20053;-35
2023/07/18 16:13:16;;;;;;;2.20;0.95;;;24.10;99.90;;;;;;12452622;28;20057;-35
2023/07/18 16:19:17;;;;;;;4.57;1.20;;;24.10;99.90;;;;;;12494174;28;20083;-35
2023/07/18 16:25:20;;;;;;;3.13;1.30;;;24.30;99.90;;;;;;12466862;28;20049;-36
2023/07/18 16:31:22;;;;;;;3.60;1.30;;;24.30;99.90;;;;;;12452181;28;20497;-35
2023/07/18 16:37:24;;;;;;;3.73;1.07;;;24.30;99.90;;;;;;12467359;28;20053;-35
2023/07/18 16:43:27;;;;;;;2.17;0.93;;;24.00;99.90;;;;;;12456522;28;20406;-35
2023/07/18 16:49:29;;;;;;;;;;;24.60;99.90;;;;;;12459091;28;20045;-35
2023/07/18 16:55:30;;;;;;;;;;;24.70;99.90;;;;;;12445764;28;20315;-36
2023/07/18 17:01:32;;;;;;;;;;;24.70;99.90;;;;;;12465505;28;19932;-36
2023/07/18 17:07:35;;;;;;;;;;;24.50;99.90;;;;;;12430409;28;20547;-35
2023/07/18 17:13:37;;;;;;;;;;;24.20;99.90;;;;;;12449391;28;19960;-35
2023/07/18 17:19:38;;;;;;;;;;;24.60;99.90;;;;;;12495329;28;19921;-35
2023/07/18 17:26:00;;;;;;;;;;;24.80;99.90;;;;;;12432810;28;20356;-36
2023/07/18 17:32:02;;;;;;;;;;;24.80;99.90;;;;;;12450515;28;20441;-36
2023/07/18 17:38:04;;;;;;;;;;;24.40;99.90;;;;;;12467082;28;19929;-36
2023/07/18 17:44:06;;;;;;;;;;;25.10;99.90;;;;;;12463481;28;19967;-36
2023/07/18 17:50:07;;;;;;;;;;;25.20;99.90;;;;;;12461160;28;19925;-36
2023/07/18 17:56:09;;;;;;;;;;;24.50;99.90;;;;;;12424390;28;20328;-36
2023/07/18 18:02:11;;;;;;;;;;;23.80;99.90;;;;;;12462474;28;19921;-35
2023/07/18 18:08:14;;;;;;;;;;;24.00;99.90;;;;;;12460276;28;20282;-35
2023/07/18 18:14:15;;;;;;;;;;;23.90;99.90;;;;;;12453614;28;19925;-35
2023/07/18 18:20:19;;;;;;;;;;;23.40;99.90;;;;;;12480302;28;19925;-35
2023/07/18 18:26:21;;;;;;;;;;;23.10;99.90;;;;;;12463174;28;20020;-34
2023/07/18 18:32:23;;;;;;;;;;;23.00;99.90;;;;;;12462635;28;19969;-35
2023/07/18 18:38:26;;;;;;;;;;;23.10;99.90;;;;;;12469843;28;20226;-35
2023/07/18 18:44:28;;;;;;;;;;;23.10;99.90;;;;;;12457625;28;20015;-36
2023/07/18 18:50:30;;;;;;;;;;;22.80;99.90;;;;;;12457123;28;20239;-35
2023/07/18 18:56:32;;;;;;;;;;;22.50;99.90;;;;;;12447448;28;19929;-35
2023/07/18 19:02:36;;;;;;;;;;;22.20;99.90;;;;;;12460160;28;19932;-35
2023/07/18 19:08:38;;;;;;;;;;;22.10;99.90;;;;;;12473993;28;19921;-35
2023/07/18 19:14:41;;;;;;;;;;;21.80;99.90;;;;;;12494965;28;19920;-35
2023/07/18 19:20:42;;;;;;;;;;;21.40;99.90;;;;;;12538083;28;19929;-35
2023/07/18 19:26:44;;;;;;;;;;;21.30;99.90;;;;;;12498718;28;20011;-35
2023/07/18 19:32:46;;;;;;;;;;;21.00;99.90;;;;;;12500006;28;20374;-35
2023/07/18 19:38:48;;;;;;;;;;;20.10;99.90;;;;;;12499460;28;19924;-35
2023/07/18 19:44:50;;;;;;;;;;;19.90;99.90;;;;;;12514633;28;19927;-35
2023/07/18 19:50:52;;;;;;;;;;;19.80;99.90;;;;;;12511675;28;19970;-35
2023/07/18 19:56:55;;;;;;;;;;;19.50;99.90;;;;;;12507406;28;20328;-35
2023/07/18 20:02:57;;;;;;;;;;;19.10;99.90;;;;;;12520456;28;19921;-35
2023/07/18 20:08:59;;;;;;;;;;;19.20;99.90;;;;;;12492638;28;19928;-35
2023/07/18 20:15:01;;;;;;;;;;;19.20;99.90;;;;;;12510131;28;19920;-35
2023/07/18 20:21:03;;;;;;;;;;;19.10;99.90;;;;;;12535487;28;19924;-35
2023/07/18 20:27:05;;;;;;;;;;;19.00;99.90;;;;;;12506832;28;20562;-35
2023/07/18 20:33:07;;;;;;;;;;;18.80;99.90;;;;;;12518928;28;19921;-34
2023/07/18 20:39:08;;;;;;;;;;;18.60;99.90;;;;;;12517538;28;19924;-35
2023/07/18 20:45:10;;;;;;;;;;;18.00;99.90;;;;;;12525331;28;19949;-35
2023/07/18 20:51:12;;;;;;;;;;;18.10;99.90;;;;;;12517062;28;19925;-34
2023/07/18 20:57:14;;;;;;;;;;;18.20;99.90;;;;;;12519856;28;19921;-36
2023/07/18 21:03:16;;;;;;;;;;;18.00;99.90;;;;;;12534892;28;19928;-35
2023/07/18 21:09:18;;;;;;;;;;;17.30;99.90;;;;;;12506593;28;19932;-35
2023/07/18 21:15:19;;;;;;;;;;;17.50;99.90;;;;;;12503658;28;19921;-34
2023/07/18 21:21:21;;;;;;;;;;;17.60;99.90;;;;;;12526505;28;20376;-35
2023/07/18 21:27:23;;;;;;;;;;;17.70;99.90;;;;;;12500333;28;19925;-34
2023/07/18 21:33:25;;;;;;;;;;;17.60;99.90;;;;;;12527417;28;19934;-34
2023/07/18 21:39:27;;;;;;;;;;;17.60;99.90;;;;;;12503764;28;20373;-34
2023/07/18 21:45:29;;;;;;;;;;;17.50;99.90;;;;;;12509734;28;20286;-34
2023/07/18 21:51:31;;;;;;;;;;;17.50;99.90;;;;;;12522414;28;20067;-35
2023/07/18 21:57:32;;;;;;;;;;;17.70;99.90;;;;;;12531776;28;19975;-35
2023/07/18 22:03:34;;;;;;;;;;;17.80;99.90;;;;;;12506842;28;20379;-35
2023/07/18 22:09:36;;;;;;;;;;;18.00;99.90;;;;;;12506116;28;19920;-35
2023/07/18 22:15:38;;;;;;;;;;;18.10;99.90;;;;;;12498614;28;19933;-35
2023/07/18 22:21:40;;;;;;;;;;;18.30;99.90;;;;;;12532332;28;19924;-35
2023/07/18 22:27:42;;;;;;;;;;;18.30;99.90;;;;;;12503110;28;20067;-35
2023/07/18 22:33:43;;;;;;;;;;;18.40;99.90;;;;;;12512420;28;19943;-35
2023/07/18 22:39:45;;;;;;;;;;;18.30;99.90;;;;;;12523664;28;19924;-35
2023/07/18 22:45:50;;;;;;;;;;;18.20;99.90;;;;;;12500998;28;19921;-35
2023/07/18 22:51:51;;;;;;;;;;;18.10;99.90;;;;;;12505362;28;19928;-35
2023/07/18 22:57:53;;;;;;;;;;;18.00;99.90;;;;;;12512855;28;19959;-34
2023/07/18 23:03:55;;;;;;;;;;;17.70;99.90;;;;;;12505013;28;19929;-35
2023/07/18 23:09:57;;;;;;;;;;;17.80;99.90;;;;;;12513536;28;19921;-35
2023/07/18 23:15:58;;;;;;;;;;;17.50;99.90;;;;;;12514593;28;19932;-35
2023/07/18 23:22:00;;;;;;;;;;;17.50;99.90;;;;;;12502804;28;20027;-35
2023/07/18 23:28:04;;;;;;;;;;;17.50;99.90;;;;;;12508091;28;20300;-35
2023/07/18 23:34:06;;;;;;;;;;;17.30;99.90;;;;;;12527949;28;19921;-35
2023/07/18 23:40:08;;;;;;;;;;;17.30;99.90;;;;;;12521217;28;20011;-35
2023/07/18 23:46:10;;;;;;;;;;;17.50;99.90;;;;;;12483214;28;19971;-35
2023/07/18 23:52:11;;;;;;;;;;;17.30;99.90;;;;;;12496890;28;19966;-35
2023/07/18 23:58:13;;;;;;;;;;;17.40;99.90;;;;;;12505620;28;19956;-35
